sensor_id;sensor_type;location;lat;lon;timestamp;pressure;altitude;pressure_sealevel;temperature;humidity
70930;BME280;58588;48.102;19.682;2022-12-07T00:01:54;99308.53;;;3.53;100.00
70930;BME280;58588;48.102;19.682;2022-12-07T00:04:56;99299.25;;;3.67;100.00
70930;BME280;58588;48.102;19.682;2022-12-07T00:07:58;99296.53;;;3.49;100.00
70930;BME280;58588;48.102;19.682;2022-12-07T00:11:02;99288.22;;;3.52;100.00
70930;BME280;58588;48.102;19.682;2022-12-07T00:14:06;99293.13;;;3.47;100.00
70930;BME280;58588;48.102;19.682;2022-12-07T00:17:09;99290.94;;;3.70;100.00
70930;BME280;58588;48.102;19.682;2022-12-07T00:20:11;99284.38;;;3.64;100.00
70930;BME280;58588;48.102;19.682;2022-12-07T00:23:13;99291.25;;;3.67;100.00
70930;BME280;58588;48.102;19.682;2022-12-07T00:26:18;99283.50;;;3.73;100.00
70930;BME280;58588;48.102;19.682;2022-12-07T00:29:21;99293.19;;;3.74;100.00
70930;BME280;58588;48.102;19.682;2022-12-07T00:32:23;99283.69;;;3.62;100.00
70930;BME280;58588;48.102;19.682;2022-12-07T00:35:25;99292.94;;;3.68;100.00
70930;BME280;58588;48.102;19.682;2022-12-07T00:38:28;99287.28;;;3.71;100.00
70930;BME280;58588;48.102;19.682;2022-12-07T00:41:32;99295.81;;;3.84;100.00
70930;BME280;58588;48.102;19.682;2022-12-07T00:44:34;99285.84;;;3.86;100.00
70930;BME280;58588;48.102;19.682;2022-12-07T00:47:36;99289.06;;;4.08;100.00
70930;BME280;58588;48.102;19.682;2022-12-07T00:50:38;99290.53;;;4.02;100.00
70930;BME280;58588;48.102;19.682;2022-12-07T00:53:40;99271.53;;;4.05;100.00
70930;BME280;58588;48.102;19.682;2022-12-07T00:56:44;99272.97;;;3.99;100.00
70930;BME280;58588;48.102;19.682;2022-12-07T00:59:46;99271.88;;;4.02;100.00
70930;BME280;58588;48.102;19.682;2022-12-07T01:02:48;99271.31;;;3.98;100.00
70930;BME280;58588;48.102;19.682;2022-12-07T01:05:51;99264.81;;;4.01;100.00
70930;BME280;58588;48.102;19.682;2022-12-07T01:08:54;99264.69;;;4.02;100.00
70930;BME280;58588;48.102;19.682;2022-12-07T01:11:57;99270.72;;;4.05;100.00
70930;BME280;58588;48.102;19.682;2022-12-07T01:14:59;99259.66;;;3.99;100.00
70930;BME280;58588;48.102;19.682;2022-12-07T01:18:01;99256.81;;;4.01;100.00
70930;BME280;58588;48.102;19.682;2022-12-07T01:21:05;99256.97;;;3.99;100.00
70930;BME280;58588;48.102;19.682;2022-12-07T01:24:10;99248.16;;;3.99;100.00
70930;BME280;58588;48.102;19.682;2022-12-07T01:27:14;99242.84;;;3.89;100.00
70930;BME280;58588;48.102;19.682;2022-12-07T01:30:16;99236.94;;;3.95;100.00
70930;BME280;58588;48.102;19.682;2022-12-07T01:33:18;99248.09;;;4.09;100.00
70930;BME280;58588;48.102;19.682;2022-12-07T01:36:22;99248.91;;;3.91;100.00
70930;BME280;58588;48.102;19.682;2022-12-07T01:39:25;99253.47;;;3.99;100.00
70930;BME280;58588;48.102;19.682;2022-12-07T01:42:29;99237.41;;;3.91;100.00
70930;BME280;58588;48.102;19.682;2022-12-07T01:45:38;99245.44;;;3.81;100.00
70930;BME280;58588;48.102;19.682;2022-12-07T01:48:41;99238.44;;;3.80;100.00
70930;BME280;58588;48.102;19.682;2022-12-07T01:51:46;99247.88;;;3.74;100.00
70930;BME280;58588;48.102;19.682;2022-12-07T01:54:52;99246.88;;;3.75;100.00
70930;BME280;58588;48.102;19.682;2022-12-07T01:57:57;99240.78;;;3.83;100.00
70930;BME280;58588;48.102;19.682;2022-12-07T02:01:00;99235.81;;;3.70;100.00
70930;BME280;58588;48.102;19.682;2022-12-07T02:04:02;99239.63;;;3.68;100.00
70930;BME280;58588;48.102;19.682;2022-12-07T02:07:05;99241.13;;;3.70;100.00
70930;BME280;58588;48.102;19.682;2022-12-07T02:10:15;99243.97;;;3.69;100.00
70930;BME280;58588;48.102;19.682;2022-12-07T02:13:20;99243.69;;;3.72;100.00
70930;BME280;58588;48.102;19.682;2022-12-07T02:16:29;99243.13;;;3.68;100.00
70930;BME280;58588;48.102;19.682;2022-12-07T02:19:58;99242.72;;;3.63;100.00
70930;BME280;58588;48.102;19.682;2022-12-07T02:23:30;99232.25;;;3.52;100.00
70930;BME280;58588;48.102;19.682;2022-12-07T02:26:48;99239.00;;;3.46;100.00
70930;BME280;58588;48.102;19.682;2022-12-07T02:30:00;99234.84;;;3.44;100.00
70930;BME280;58588;48.102;19.682;2022-12-07T02:33:05;99237.75;;;3.51;100.00
70930;BME280;58588;48.102;19.682;2022-12-07T02:36:12;99232.00;;;3.45;100.00
70930;BME280;58588;48.102;19.682;2022-12-07T02:39:20;99230.31;;;3.54;100.00
70930;BME280;58588;48.102;19.682;2022-12-07T02:42:30;99237.31;;;3.55;100.00
70930;BME280;58588;48.102;19.682;2022-12-07T02:45:37;99224.25;;;3.52;100.00
70930;BME280;58588;48.102;19.682;2022-12-07T02:48:41;99221.31;;;3.55;100.00
70930;BME280;58588;48.102;19.682;2022-12-07T02:51:46;99228.00;;;3.59;100.00
70930;BME280;58588;48.102;19.682;2022-12-07T02:54:48;99222.16;;;3.56;100.00
70930;BME280;58588;48.102;19.682;2022-12-07T02:58:14;99220.91;;;3.50;100.00
70930;BME280;58588;48.102;19.682;2022-12-07T03:01:28;99234.66;;;3.55;100.00
70930;BME280;58588;48.102;19.682;2022-12-07T03:04:41;99228.47;;;3.55;100.00
70930;BME280;58588;48.102;19.682;2022-12-07T03:07:51;99238.22;;;3.64;100.00
70930;BME280;58588;48.102;19.682;2022-12-07T03:10:58;99230.75;;;3.49;100.00
70930;BME280;58588;48.102;19.682;2022-12-07T03:14:09;99229.25;;;3.65;100.00
70930;BME280;58588;48.102;19.682;2022-12-07T03:17:19;99234.41;;;3.48;100.00
70930;BME280;58588;48.102;19.682;2022-12-07T03:20:24;99230.69;;;3.59;100.00
70930;BME280;58588;48.102;19.682;2022-12-07T03:23:28;99219.53;;;3.46;100.00
70930;BME280;58588;48.102;19.682;2022-12-07T03:26:35;99235.31;;;3.57;100.00
70930;BME280;58588;48.102;19.682;2022-12-07T03:29:46;99227.75;;;3.53;100.00
70930;BME280;58588;48.102;19.682;2022-12-07T03:32:54;99226.25;;;3.50;100.00
70930;BME280;58588;48.102;19.682;2022-12-07T03:36:01;99222.03;;;3.47;100.00
70930;BME280;58588;48.102;19.682;2022-12-07T03:39:13;99228.34;;;3.46;100.00
70930;BME280;58588;48.102;19.682;2022-12-07T03:42:19;99224.31;;;3.42;100.00
70930;BME280;58588;48.102;19.682;2022-12-07T03:45:25;99224.00;;;3.45;100.00
70930;BME280;58588;48.102;19.682;2022-12-07T03:48:35;99224.25;;;3.52;100.00
70930;BME280;58588;48.102;19.682;2022-12-07T03:51:42;99223.28;;;3.53;100.00
70930;BME280;58588;48.102;19.682;2022-12-07T03:54:49;99223.59;;;3.50;100.00
70930;BME280;58588;48.102;19.682;2022-12-07T03:57:57;99230.44;;;3.53;100.00
70930;BME280;58588;48.102;19.682;2022-12-07T04:01:01;99224.41;;;3.51;100.00
70930;BME280;58588;48.102;19.682;2022-12-07T04:04:07;99237.72;;;3.60;100.00
70930;BME280;58588;48.102;19.682;2022-12-07T04:07:09;99220.16;;;3.58;100.00
70930;BME280;58588;48.102;19.682;2022-12-07T04:10:11;99221.44;;;3.54;100.00
70930;BME280;58588;48.102;19.682;2022-12-07T04:13:13;99213.91;;;3.49;100.00
70930;BME280;58588;48.102;19.682;2022-12-07T04:16:15;99217.09;;;3.53;100.00
70930;BME280;58588;48.102;19.682;2022-12-07T04:19:20;99221.44;;;3.54;100.00
70930;BME280;58588;48.102;19.682;2022-12-07T04:22:22;99208.72;;;3.47;100.00
70930;BME280;58588;48.102;19.682;2022-12-07T04:25:24;99220.31;;;3.56;100.00
70930;BME280;58588;48.102;19.682;2022-12-07T04:28:26;99214.34;;;3.44;100.00
70930;BME280;58588;48.102;19.682;2022-12-07T04:31:28;99219.69;;;3.44;100.00
70930;BME280;58588;48.102;19.682;2022-12-07T04:34:32;99224.16;;;3.44;100.00
70930;BME280;58588;48.102;19.682;2022-12-07T04:37:34;99220.81;;;3.42;100.00
70930;BME280;58588;48.102;19.682;2022-12-07T04:40:36;99218.84;;;3.44;100.00
70930;BME280;58588;48.102;19.682;2022-12-07T04:43:38;99227.09;;;3.51;100.00
70930;BME280;58588;48.102;19.682;2022-12-07T04:46:40;99217.00;;;3.44;100.00
70930;BME280;58588;48.102;19.682;2022-12-07T04:49:44;99234.97;;;3.42;100.00
70930;BME280;58588;48.102;19.682;2022-12-07T04:52:46;99222.31;;;3.54;100.00
70930;BME280;58588;48.102;19.682;2022-12-07T04:55:48;99221.59;;;3.52;100.00
70930;BME280;58588;48.102;19.682;2022-12-07T04:58:52;99228.84;;;3.60;100.00
70930;BME280;58588;48.102;19.682;2022-12-07T05:01:54;99238.06;;;3.65;100.00
70930;BME280;58588;48.102;19.682;2022-12-07T05:04:57;99222.31;;;3.54;100.00
70930;BME280;58588;48.102;19.682;2022-12-07T05:07:59;99233.31;;;3.69;100.00
70930;BME280;58588;48.102;19.682;2022-12-07T05:11:05;99218.66;;;3.55;100.00
70930;BME280;58588;48.102;19.682;2022-12-07T05:14:10;99222.03;;;3.75;100.00
70930;BME280;58588;48.102;19.682;2022-12-07T05:17:13;99225.88;;;3.72;100.00
70930;BME280;58588;48.102;19.682;2022-12-07T05:20:16;99235.69;;;3.72;100.00
70930;BME280;58588;48.102;19.682;2022-12-07T05:23:18;99230.44;;;3.80;100.00
70930;BME280;58588;48.102;19.682;2022-12-07T05:26:21;99223.03;;;3.74;100.00
70930;BME280;58588;48.102;19.682;2022-12-07T05:29:23;99222.88;;;3.75;100.00
70930;BME280;58588;48.102;19.682;2022-12-07T05:32:25;99225.25;;;3.79;100.00
70930;BME280;58588;48.102;19.682;2022-12-07T05:35:28;99221.16;;;3.84;100.00
70930;BME280;58588;48.102;19.682;2022-12-07T05:38:31;99217.28;;;3.96;100.00
70930;BME280;58588;48.102;19.682;2022-12-07T05:41:33;99216.47;;;3.96;100.00
70930;BME280;58588;48.102;19.682;2022-12-07T05:44:52;99222.88;;;4.03;100.00
70930;BME280;58588;48.102;19.682;2022-12-07T05:47:54;99213.03;;;4.03;100.00
70930;BME280;58588;48.102;19.682;2022-12-07T05:50:58;99212.78;;;3.97;100.00
70930;BME280;58588;48.102;19.682;2022-12-07T05:54:00;99215.31;;;3.98;100.00
70930;BME280;58588;48.102;19.682;2022-12-07T05:57:02;99218.66;;;4.00;100.00
70930;BME280;58588;48.102;19.682;2022-12-07T06:00:05;99220.81;;;4.15;100.00
70930;BME280;58588;48.102;19.682;2022-12-07T06:03:07;99211.34;;;4.02;100.00
70930;BME280;58588;48.102;19.682;2022-12-07T06:06:10;99218.66;;;4.00;100.00
70930;BME280;58588;48.102;19.682;2022-12-07T06:09:14;99219.88;;;4.06;100.00
70930;BME280;58588;48.102;19.682;2022-12-07T06:12:16;99204.31;;;4.01;100.00
70930;BME280;58588;48.102;19.682;2022-12-07T06:15:38;99205.69;;;4.06;100.00
70930;BME280;58588;48.102;19.682;2022-12-07T06:18:40;99211.03;;;4.06;100.00
70930;BME280;58588;48.102;19.682;2022-12-07T06:21:44;99208.28;;;3.80;100.00
70930;BME280;58588;48.102;19.682;2022-12-07T06:24:46;99217.03;;;3.72;100.00
70930;BME280;58588;48.102;19.682;2022-12-07T06:27:48;99207.84;;;3.57;100.00
70930;BME280;58588;48.102;19.682;2022-12-07T06:30:57;99226.34;;;3.58;100.00
70930;BME280;58588;48.102;19.682;2022-12-07T06:33:59;99221.00;;;3.58;100.00
70930;BME280;58588;48.102;19.682;2022-12-07T06:37:02;99231.50;;;3.60;100.00
70930;BME280;58588;48.102;19.682;2022-12-07T06:40:06;99225.75;;;3.64;100.00
70930;BME280;58588;48.102;19.682;2022-12-07T06:43:08;99229.19;;;3.74;100.00
70930;BME280;58588;48.102;19.682;2022-12-07T06:46:10;99223.03;;;3.74;100.00
70930;BME280;58588;48.102;19.682;2022-12-07T06:49:12;99214.88;;;3.75;100.00
70930;BME280;58588;48.102;19.682;2022-12-07T06:56:12;99238.50;;;3.88;100.00
70930;BME280;58588;48.102;19.682;2022-12-07T06:59:14;99236.06;;;3.77;100.00
70930;BME280;58588;48.102;19.682;2022-12-07T07:02:16;99237.63;;;3.70;100.00
70930;BME280;58588;48.102;19.682;2022-12-07T07:05:18;99240.94;;;3.82;100.00
70930;BME280;58588;48.102;19.682;2022-12-07T07:08:22;99235.69;;;3.72;100.00
70930;BME280;58588;48.102;19.682;2022-12-07T07:11:25;99234.63;;;3.83;100.00
70930;BME280;58588;48.102;19.682;2022-12-07T07:14:27;99230.19;;;3.73;100.00
70930;BME280;58588;48.102;19.682;2022-12-07T07:17:29;99238.97;;;3.84;100.00
70930;BME280;58588;48.102;19.682;2022-12-07T07:20:31;99239.66;;;3.86;100.00
70930;BME280;58588;48.102;19.682;2022-12-07T07:23:33;99240.66;;;3.85;100.00
70930;BME280;58588;48.102;19.682;2022-12-07T07:26:37;99229.38;;;3.73;100.00
70930;BME280;58588;48.102;19.682;2022-12-07T07:29:39;99232.09;;;3.81;100.00
70930;BME280;58588;48.102;19.682;2022-12-07T07:32:41;99241.25;;;3.79;100.00
70930;BME280;58588;48.102;19.682;2022-12-07T07:35:43;99246.97;;;3.84;100.00
70930;BME280;58588;48.102;19.682;2022-12-07T07:38:45;99236.75;;;3.79;100.00
70930;BME280;58588;48.102;19.682;2022-12-07T07:41:48;99227.63;;;3.82;100.00
70930;BME280;58588;48.102;19.682;2022-12-07T07:44:50;99234.53;;;3.74;100.00
70930;BME280;58588;48.102;19.682;2022-12-07T07:47:53;99230.03;;;3.75;100.00
70930;BME280;58588;48.102;19.682;2022-12-07T07:50:55;99229.81;;;3.68;100.00
70930;BME280;58588;48.102;19.682;2022-12-07T07:53:57;99219.53;;;3.73;100.00
70930;BME280;58588;48.102;19.682;2022-12-07T07:57:00;99248.75;;;3.93;100.00
70930;BME280;58588;48.102;19.682;2022-12-07T08:00:03;99238.97;;;3.84;100.00
70930;BME280;58588;48.102;19.682;2022-12-07T08:03:05;99242.34;;;3.86;100.00
70930;BME280;58588;48.102;19.682;2022-12-07T08:06:07;99241.63;;;3.84;100.00
70930;BME280;58588;48.102;19.682;2022-12-07T08:09:09;99242.84;;;3.89;100.00
70930;BME280;58588;48.102;19.682;2022-12-07T08:12:13;99234.84;;;3.89;100.00
70930;BME280;58588;48.102;19.682;2022-12-07T08:15:15;99240.97;;;3.99;100.00
70930;BME280;58588;48.102;19.682;2022-12-07T08:18:17;99254.94;;;4.11;100.00
70930;BME280;58588;48.102;19.682;2022-12-07T08:21:19;99258.91;;;4.25;100.00
70930;BME280;58588;48.102;19.682;2022-12-07T08:24:21;99254.56;;;4.24;100.00
70930;BME280;58588;48.102;19.682;2022-12-07T08:27:25;99254.19;;;4.19;100.00
70930;BME280;58588;48.102;19.682;2022-12-07T08:30:28;99261.81;;;4.32;100.00
70930;BME280;58588;48.102;19.682;2022-12-07T08:33:30;99266.78;;;4.26;100.00
70930;BME280;58588;48.102;19.682;2022-12-07T08:36:32;99271.81;;;4.29;100.00
70930;BME280;58588;48.102;19.682;2022-12-07T08:39:34;99272.13;;;4.26;100.00
70930;BME280;58588;48.102;19.682;2022-12-07T08:42:37;99285.09;;;4.39;100.00
70930;BME280;58588;48.102;19.682;2022-12-07T08:45:40;99270.50;;;4.16;100.00
70930;BME280;58588;48.102;19.682;2022-12-07T08:48:45;99279.81;;;4.29;100.00
70930;BME280;58588;48.102;19.682;2022-12-07T08:51:48;99277.81;;;4.32;100.00
70930;BME280;58588;48.102;19.682;2022-12-07T08:54:51;99262.69;;;4.32;100.00
70930;BME280;58588;48.102;19.682;2022-12-07T08:57:54;99279.66;;;4.31;100.00
70930;BME280;58588;48.102;19.682;2022-12-07T09:00:56;99273.25;;;4.24;100.00
70930;BME280;58588;48.102;19.682;2022-12-07T09:03:59;99278.41;;;4.25;100.00
70930;BME280;58588;48.102;19.682;2022-12-07T09:07:01;99267.00;;;4.15;100.00
70930;BME280;58588;48.102;19.682;2022-12-07T09:10:04;99274.06;;;4.24;100.00
70930;BME280;58588;48.102;19.682;2022-12-07T09:13:07;99262.41;;;4.25;100.00
70930;BME280;58588;48.102;19.682;2022-12-07T09:16:09;99270.13;;;4.28;100.00
70930;BME280;58588;48.102;19.682;2022-12-07T09:19:12;99266.03;;;4.34;100.00
70930;BME280;58588;48.102;19.682;2022-12-07T09:22:14;99265.56;;;4.56;100.00
70930;BME280;58588;48.102;19.682;2022-12-07T09:25:16;99271.81;;;4.65;100.00
70930;BME280;58588;48.102;19.682;2022-12-07T09:28:19;99245.94;;;4.66;100.00
70930;BME280;58588;48.102;19.682;2022-12-07T09:31:21;99260.97;;;4.49;100.00
70930;BME280;58588;48.102;19.682;2022-12-07T09:34:23;99261.28;;;4.64;100.00
70930;BME280;58588;48.102;19.682;2022-12-07T09:37:26;99256.78;;;4.64;100.00
70930;BME280;58588;48.102;19.682;2022-12-07T09:40:28;99261.03;;;5.19;100.00
70930;BME280;58588;48.102;19.682;2022-12-07T09:43:33;99250.59;;;5.33;100.00
70930;BME280;58588;48.102;19.682;2022-12-07T09:46:39;99252.00;;;5.20;100.00
70930;BME280;58588;48.102;19.682;2022-12-07T09:49:41;99267.13;;;5.29;100.00
70930;BME280;58588;48.102;19.682;2022-12-07T09:52:44;99253.41;;;5.32;100.00
70930;BME280;58588;48.102;19.682;2022-12-07T09:55:48;99244.63;;;4.88;100.00
70930;BME280;58588;48.102;19.682;2022-12-07T09:58:54;99246.94;;;4.65;100.00
70930;BME280;58588;48.102;19.682;2022-12-07T10:02:22;99244.00;;;4.94;100.00
70930;BME280;58588;48.102;19.682;2022-12-07T10:05:28;99234.81;;;4.96;100.00
70930;BME280;58588;48.102;19.682;2022-12-07T10:08:33;99238.81;;;4.92;100.00
70930;BME280;58588;48.102;19.682;2022-12-07T10:12:00;99248.16;;;4.70;100.00
70930;BME280;58588;48.102;19.682;2022-12-07T10:15:04;99241.91;;;4.62;100.00
70930;BME280;58588;48.102;19.682;2022-12-07T10:18:17;99232.97;;;4.71;100.00
70930;BME280;58588;48.102;19.682;2022-12-07T10:21:21;99226.59;;;4.90;100.00
70930;BME280;58588;48.102;19.682;2022-12-07T10:24:24;99215.25;;;4.88;100.00
70930;BME280;58588;48.102;19.682;2022-12-07T10:27:30;99227.50;;;5.24;100.00
70930;BME280;58588;48.102;19.682;2022-12-07T10:30:46;99222.69;;;5.02;100.00
70930;BME280;58588;48.102;19.682;2022-12-07T10:33:50;99216.88;;;5.06;100.00
70930;BME280;58588;48.102;19.682;2022-12-07T10:36:53;99209.31;;;5.02;100.00
70930;BME280;58588;48.102;19.682;2022-12-07T10:40:25;99211.16;;;4.75;100.00
70930;BME280;58588;48.102;19.682;2022-12-07T10:43:27;99208.13;;;4.96;100.00
70930;BME280;58588;48.102;19.682;2022-12-07T10:47:00;99208.53;;;4.83;100.00
70930;BME280;58588;48.102;19.682;2022-12-07T10:50:37;99218.06;;;4.42;100.00
70930;BME280;58588;48.102;19.682;2022-12-07T10:53:58;99201.91;;;4.26;100.00
70930;BME280;58588;48.102;19.682;2022-12-07T10:57:26;99224.81;;;4.54;100.00
70930;BME280;58588;48.102;19.682;2022-12-07T11:00:37;99204.41;;;4.45;100.00
70930;BME280;58588;48.102;19.682;2022-12-07T11:07:24;99207.94;;;4.72;100.00
70930;BME280;58588;48.102;19.682;2022-12-07T11:10:35;99207.63;;;4.93;100.00
70930;BME280;58588;48.102;19.682;2022-12-07T11:13:48;99204.88;;;5.10;100.00
70930;BME280;58588;48.102;19.682;2022-12-07T11:16:56;99198.91;;;5.17;100.00
70930;BME280;58588;48.102;19.682;2022-12-07T11:20:08;99192.22;;;5.21;100.00
70930;BME280;58588;48.102;19.682;2022-12-07T11:23:22;99192.56;;;5.18;100.00
70930;BME280;58588;48.102;19.682;2022-12-07T11:26:34;99189.28;;;5.32;100.00
70930;BME280;58588;48.102;19.682;2022-12-07T11:29:54;99183.78;;;5.33;100.00
70930;BME280;58588;48.102;19.682;2022-12-07T11:33:09;99188.28;;;5.33;100.00
70930;BME280;58588;48.102;19.682;2022-12-07T11:36:31;99170.22;;;5.27;100.00
70930;BME280;58588;48.102;19.682;2022-12-07T11:39:41;99178.31;;;5.09;100.00
70930;BME280;58588;48.102;19.682;2022-12-07T11:42:51;99181.94;;;5.00;100.00
70930;BME280;58588;48.102;19.682;2022-12-07T11:45:58;99184.97;;;5.05;100.00
70930;BME280;58588;48.102;19.682;2022-12-07T11:49:07;99163.66;;;5.21;100.00
70930;BME280;58588;48.102;19.682;2022-12-07T11:52:18;99156.75;;;5.36;100.00
70930;BME280;58588;48.102;19.682;2022-12-07T11:55:29;99143.97;;;5.64;100.00
70930;BME280;58588;48.102;19.682;2022-12-07T11:58:53;99136.47;;;5.76;100.00
70930;BME280;58588;48.102;19.682;2022-12-07T12:01:59;99155.09;;;6.02;100.00
70930;BME280;58588;48.102;19.682;2022-12-07T12:05:13;99151.28;;;6.29;100.00
70930;BME280;58588;48.102;19.682;2022-12-07T12:08:20;99144.59;;;6.01;100.00
70930;BME280;58588;48.102;19.682;2022-12-07T12:11:39;99149.75;;;6.10;100.00
70930;BME280;58588;48.102;19.682;2022-12-07T12:14:56;99153.94;;;6.05;100.00
70930;BME280;58588;48.102;19.682;2022-12-07T12:21:39;99125.25;;;5.73;100.00
70930;BME280;58588;48.102;19.682;2022-12-07T12:24:43;99121.09;;;5.70;100.00
70930;BME280;58588;48.102;19.682;2022-12-07T12:27:49;99126.75;;;5.75;100.00
70930;BME280;58588;48.102;19.682;2022-12-07T12:31:09;99125.16;;;5.99;100.00
70930;BME280;58588;48.102;19.682;2022-12-07T12:34:32;99135.13;;;5.80;100.00
70930;BME280;58588;48.102;19.682;2022-12-07T12:37:43;99118.16;;;6.06;100.00
70930;BME280;58588;48.102;19.682;2022-12-07T12:40:45;99141.59;;;6.36;100.00
70930;BME280;58588;48.102;19.682;2022-12-07T12:43:50;99144.44;;;6.43;100.00
70930;BME280;58588;48.102;19.682;2022-12-07T12:46:54;99137.38;;;6.17;100.00
70930;BME280;58588;48.102;19.682;2022-12-07T12:50:18;99141.66;;;5.78;100.00
70930;BME280;58588;48.102;19.682;2022-12-07T12:53:23;99138.84;;;5.37;100.00
70930;BME280;58588;48.102;19.682;2022-12-07T12:56:37;99145.22;;;5.36;100.00
70930;BME280;58588;48.102;19.682;2022-12-07T12:59:56;99152.19;;;5.29;100.00
70930;BME280;58588;48.102;19.682;2022-12-07T13:02:59;99152.75;;;5.41;100.00
70930;BME280;58588;48.102;19.682;2022-12-07T13:06:18;99152.16;;;5.21;100.00
70930;BME280;58588;48.102;19.682;2022-12-07T13:09:23;99161.41;;;5.34;100.00
70930;BME280;58588;48.102;19.682;2022-12-07T13:12:26;99156.16;;;5.17;100.00
70930;BME280;58588;48.102;19.682;2022-12-07T13:15:34;99152.06;;;5.38;100.00
70930;BME280;58588;48.102;19.682;2022-12-07T13:18:37;99158.38;;;5.29;100.00
70930;BME280;58588;48.102;19.682;2022-12-07T13:21:43;99168.53;;;5.26;100.00
70930;BME280;58588;48.102;19.682;2022-12-07T13:24:46;99167.97;;;5.48;100.00
70930;BME280;58588;48.102;19.682;2022-12-07T13:27:54;99175.53;;;5.53;100.00
70930;BME280;58588;48.102;19.682;2022-12-07T13:31:11;99180.31;;;5.41;100.00
70930;BME280;58588;48.102;19.682;2022-12-07T13:34:29;99187.69;;;5.47;100.00
70930;BME280;58588;48.102;19.682;2022-12-07T13:37:33;99180.44;;;5.40;100.00
70930;BME280;58588;48.102;19.682;2022-12-07T13:40:35;99193.78;;;5.31;100.00
70930;BME280;58588;48.102;19.682;2022-12-07T13:43:46;99190.25;;;5.23;100.00
70930;BME280;58588;48.102;19.682;2022-12-07T13:46:59;99183.38;;;5.20;100.00
70930;BME280;58588;48.102;19.682;2022-12-07T13:50:22;99188.22;;;5.17;100.00
70930;BME280;58588;48.102;19.682;2022-12-07T13:53:25;99168.75;;;4.98;100.00
70930;BME280;58588;48.102;19.682;2022-12-07T13:56:33;99164.75;;;5.02;100.00
70930;BME280;58588;48.102;19.682;2022-12-07T13:59:36;99172.38;;;4.97;100.00
70930;BME280;58588;48.102;19.682;2022-12-07T14:02:55;99185.34;;;5.10;100.00
70930;BME280;58588;48.102;19.682;2022-12-07T14:06:07;99177.19;;;5.20;100.00
70930;BME280;58588;48.102;19.682;2022-12-07T14:09:17;99174.78;;;5.08;100.00
70930;BME280;58588;48.102;19.682;2022-12-07T14:12:21;99186.25;;;5.27;100.00
70930;BME280;58588;48.102;19.682;2022-12-07T14:15:25;99182.53;;;5.20;100.00
70930;BME280;58588;48.102;19.682;2022-12-07T14:18:36;99169.78;;;5.05;100.00
70930;BME280;58588;48.102;19.682;2022-12-07T14:21:38;99187.03;;;5.11;100.00
70930;BME280;58588;48.102;19.682;2022-12-07T14:24:42;99178.88;;;5.21;100.00
70930;BME280;58588;48.102;19.682;2022-12-07T14:27:50;99176.69;;;4.90;100.00
70930;BME280;58588;48.102;19.682;2022-12-07T14:30:53;99172.19;;;4.91;100.00
70930;BME280;58588;48.102;19.682;2022-12-07T14:33:58;99171.09;;;5.01;100.00
70930;BME280;58588;48.102;19.682;2022-12-07T14:37:00;99182.38;;;4.87;100.00
70930;BME280;58588;48.102;19.682;2022-12-07T14:40:06;99176.69;;;4.64;100.00
70930;BME280;58588;48.102;19.682;2022-12-07T14:43:11;99192.91;;;4.45;100.00
70930;BME280;58588;48.102;19.682;2022-12-07T14:46:23;99173.63;;;4.33;100.00
70930;BME280;58588;48.102;19.682;2022-12-07T14:49:26;99183.38;;;4.24;100.00
70930;BME280;58588;48.102;19.682;2022-12-07T14:52:29;99202.97;;;4.15;100.00
70930;BME280;58588;48.102;19.682;2022-12-07T14:55:34;99190.47;;;3.98;100.00
70930;BME280;58588;48.102;19.682;2022-12-07T14:58:37;99201.97;;;3.98;100.00
70930;BME280;58588;48.102;19.682;2022-12-07T15:01:39;99183.50;;;3.69;100.00
70930;BME280;58588;48.102;19.682;2022-12-07T15:04:42;99190.69;;;3.59;100.00
70930;BME280;58588;48.102;19.682;2022-12-07T15:07:45;99190.84;;;3.58;100.00
70930;BME280;58588;48.102;19.682;2022-12-07T15:10:47;99199.50;;;3.42;100.00
70930;BME280;58588;48.102;19.682;2022-12-07T15:13:49;99209.03;;;3.44;100.00
70930;BME280;58588;48.102;19.682;2022-12-07T15:17:10;99215.03;;;3.46;100.00
70930;BME280;58588;48.102;19.682;2022-12-07T15:20:15;99212.13;;;3.40;100.00
70930;BME280;58588;48.102;19.682;2022-12-07T15:23:18;99206.03;;;3.47;100.00
70930;BME280;58588;48.102;19.682;2022-12-07T15:26:20;99224.56;;;3.49;100.00
70930;BME280;58588;48.102;19.682;2022-12-07T15:29:23;99213.84;;;3.59;100.00
70930;BME280;58588;48.102;19.682;2022-12-07T15:32:25;99211.78;;;3.53;100.00
70930;BME280;58588;48.102;19.682;2022-12-07T15:35:28;99208.88;;;3.46;100.00
70930;BME280;58588;48.102;19.682;2022-12-07T15:38:30;99229.91;;;3.49;100.00
70930;BME280;58588;48.102;19.682;2022-12-07T15:41:33;99218.72;;;3.36;100.00
70930;BME280;58588;48.102;19.682;2022-12-07T15:44:35;99233.50;;;3.30;100.00
70930;BME280;58588;48.102;19.682;2022-12-07T15:47:54;99225.44;;;3.40;100.00
70930;BME280;58588;48.102;19.682;2022-12-07T15:51:03;99234.66;;;3.55;100.00
70930;BME280;58588;48.102;19.682;2022-12-07T15:54:05;99231.25;;;3.26;100.00
70930;BME280;58588;48.102;19.682;2022-12-07T15:57:07;99233.75;;;2.90;100.00
70930;BME280;58588;48.102;19.682;2022-12-07T16:00:10;99240.91;;;2.80;100.00
70930;BME280;58588;48.102;19.682;2022-12-07T16:03:13;99248.03;;;2.69;100.00
70930;BME280;58588;48.102;19.682;2022-12-07T16:06:17;99233.50;;;2.54;100.00
70930;BME280;58588;48.102;19.682;2022-12-07T16:09:19;99252.41;;;2.61;100.00
70930;BME280;58588;48.102;19.682;2022-12-07T16:12:22;99238.72;;;2.46;100.00
70930;BME280;58588;48.102;19.682;2022-12-07T16:15:25;99246.53;;;2.38;100.00
70930;BME280;58588;48.102;19.682;2022-12-07T16:18:27;99238.41;;;2.39;100.00
70930;BME280;58588;48.102;19.682;2022-12-07T16:21:31;99236.31;;;2.24;100.00
70930;BME280;58588;48.102;19.682;2022-12-07T16:24:33;99240.09;;;2.11;100.00